createdAt,value
2022-11-25T00:00:54.639Z,33.50
2022-11-25T00:01:54.828Z,52.00
2022-11-25T00:02:55.084Z,31.10
2022-11-25T00:03:55.106Z,30.80
2022-11-25T00:04:55.273Z,30.50
2022-11-25T00:05:55.410Z,34.20
2022-11-25T00:06:55.567Z,36.00
2022-11-25T00:07:55.792Z,38.00
2022-11-25T00:08:55.845Z,39.60
2022-11-25T00:09:56.021Z,41.70
2022-11-25T00:10:56.051Z,60.50
2022-11-25T00:11:56.188Z,36.00
2022-11-25T00:12:56.336Z,30.60
2022-11-25T00:13:56.489Z,30.00
2022-11-25T00:14:56.675Z,33.20
2022-11-25T00:15:56.703Z,33.70
2022-11-25T00:16:56.884Z,31.70
2022-11-25T00:17:56.999Z,54.00
2022-11-25T00:18:57.148Z,43.40
2022-11-25T00:19:57.312Z,35.90
2022-11-25T00:20:57.491Z,31.70
2022-11-25T00:21:57.518Z,30.70
2022-11-25T00:22:57.670Z,30.30
2022-11-25T00:23:57.818Z,30.20
2022-11-25T00:24:57.980Z,31.40
2022-11-25T00:25:58.184Z,31.50
2022-11-25T00:26:58.221Z,32.20
2022-11-25T00:27:58.390Z,32.80
2022-11-25T00:28:58.528Z,31.90
2022-11-25T00:29:58.697Z,32.10
2022-11-25T00:30:58.834Z,33.10
2022-11-25T00:31:59.031Z,32.40
2022-11-25T00:32:59.043Z,32.80
2022-11-25T00:33:59.250Z,32.60
2022-11-25T00:34:59.281Z,33.50
2022-11-25T00:35:59.428Z,34.30
2022-11-25T00:36:59.570Z,32.80
2022-11-25T00:37:59.722Z,32.80
2022-11-25T00:38:59.858Z,33.60
2022-11-25T00:40:00.030Z,33.80
2022-11-25T00:41:00.178Z,33.10
2022-11-25T00:42:00.324Z,33.20
2022-11-25T00:43:00.460Z,33.00
2022-11-25T00:44:00.616Z,33.70
2022-11-25T00:45:00.810Z,33.50
2022-11-25T00:46:00.900Z,32.70
2022-11-25T00:47:00.913Z,32.80
2022-11-25T00:48:01.054Z,33.10
2022-11-25T00:49:01.187Z,34.10
2022-11-25T00:50:01.369Z,34.40
2022-11-25T00:51:01.517Z,34.10
2022-11-25T00:52:01.656Z,33.30
2022-11-25T00:53:01.800Z,34.40
2022-11-25T00:54:01.947Z,34.30
2022-11-25T00:55:02.109Z,34.00
2022-11-25T00:56:02.261Z,34.10
2022-11-25T00:57:02.402Z,34.20
2022-11-25T00:58:02.561Z,34.90
2022-11-25T00:59:02.706Z,35.10
2022-11-25T01:00:02.857Z,34.90
2022-11-25T01:01:03.026Z,34.60
2022-11-25T01:02:03.133Z,35.60
2022-11-25T01:03:03.165Z,35.90
2022-11-25T01:04:03.317Z,35.70
2022-11-25T01:05:03.490Z,35.80
2022-11-25T01:06:03.659Z,34.60
2022-11-25T01:07:03.809Z,35.30
2022-11-25T01:08:03.962Z,34.70
2022-11-25T01:09:04.107Z,35.30
2022-11-25T01:10:04.276Z,36.00
2022-11-25T01:11:04.411Z,35.10
2022-11-25T01:12:04.560Z,34.60
2022-11-25T01:13:04.699Z,35.50
2022-11-25T01:14:04.835Z,35.50
2022-11-25T01:15:05.055Z,35.80
2022-11-25T01:16:05.130Z,35.70
2022-11-25T01:17:05.158Z,35.10
2022-11-25T01:18:05.307Z,35.50
2022-11-25T01:19:05.445Z,35.40
2022-11-25T01:20:05.603Z,34.90
2022-11-25T01:21:05.753Z,35.20
2022-11-25T01:22:05.901Z,36.10
2022-11-25T01:23:06.035Z,36.20
2022-11-25T01:24:06.188Z,36.00
2022-11-25T01:25:06.341Z,35.30
2022-11-25T01:26:06.488Z,36.00
2022-11-25T01:27:06.658Z,36.50
2022-11-25T01:28:06.821Z,37.00
2022-11-25T01:29:06.979Z,35.90
2022-11-25T01:30:07.153Z,35.10
2022-11-25T01:31:07.211Z,36.40
2022-11-25T01:32:07.421Z,34.70
2022-11-25T01:33:07.441Z,35.50
2022-11-25T01:34:07.588Z,35.60
2022-11-25T01:35:07.751Z,35.40
2022-11-25T01:36:07.904Z,35.80
2022-11-25T01:37:08.034Z,34.70
2022-11-25T01:38:08.180Z,35.20
2022-11-25T01:39:08.318Z,37.20
2022-11-25T01:40:08.469Z,37.00
2022-11-25T01:41:08.610Z,38.70
2022-11-25T01:42:08.795Z,37.00
2022-11-25T01:43:08.820Z,36.90
2022-11-25T01:44:08.978Z,39.90
2022-11-25T01:45:09.122Z,39.20
2022-11-25T01:46:09.307Z,38.50
2022-11-25T01:47:09.387Z,39.70
2022-11-25T01:48:09.547Z,40.50
2022-11-25T01:49:09.686Z,39.70
2022-11-25T01:50:09.862Z,40.40
2022-11-25T01:51:10.006Z,41.50
2022-11-25T01:52:10.149Z,41.50
2022-11-25T01:53:10.284Z,41.00
2022-11-25T01:54:10.434Z,41.60
2022-11-25T01:55:10.596Z,40.60
2022-11-25T01:56:10.766Z,40.50
2022-11-25T01:57:10.804Z,42.80
2022-11-25T01:58:10.967Z,43.20
2022-11-25T01:59:11.110Z,42.40
2022-11-25T02:00:11.273Z,42.60
2022-11-25T02:01:11.362Z,43.50
2022-11-25T02:02:11.466Z,41.90
2022-11-25T02:03:11.483Z,42.70
2022-11-25T02:04:11.629Z,43.60
2022-11-25T02:05:11.783Z,42.40
2022-11-25T02:06:11.920Z,43.60
2022-11-25T02:07:12.138Z,43.30
2022-11-25T02:08:12.151Z,43.10
2022-11-25T02:09:12.293Z,43.70
2022-11-25T02:10:12.464Z,43.60
2022-11-25T02:11:12.602Z,42.60
2022-11-25T02:12:12.741Z,44.10
2022-11-25T02:13:12.868Z,43.40
2022-11-25T02:14:13.014Z,43.30
2022-11-25T02:15:13.166Z,43.50
2022-11-25T02:16:13.366Z,44.00
2022-11-25T02:17:13.398Z,44.60
2022-11-25T02:18:13.573Z,42.80
2022-11-25T02:19:13.602Z,43.90
2022-11-25T02:20:13.757Z,44.00
2022-11-25T02:21:13.823Z,43.80
2022-11-25T02:22:13.899Z,43.10
2022-11-25T02:23:14.041Z,44.50
2022-11-25T02:24:14.189Z,43.60
2022-11-25T02:25:14.347Z,44.30
2022-11-25T02:26:14.508Z,43.20
2022-11-25T02:27:14.656Z,42.60
2022-11-25T02:28:14.805Z,43.10
2022-11-25T02:29:14.945Z,44.00
2022-11-25T02:30:15.114Z,43.00
2022-11-25T02:31:15.164Z,42.00
2022-11-25T02:32:15.298Z,43.20
2022-11-25T02:33:15.453Z,42.00
2022-11-25T02:34:15.603Z,41.50
2022-11-25T02:35:15.773Z,42.50
2022-11-25T02:36:15.931Z,41.50
2022-11-25T02:37:16.111Z,41.70
2022-11-25T02:38:16.260Z,41.50
2022-11-25T02:39:16.407Z,41.60
2022-11-25T02:40:16.560Z,40.60
2022-11-25T02:41:16.713Z,40.50
2022-11-25T02:42:16.858Z,42.40
2022-11-25T02:43:16.997Z,40.90
2022-11-25T02:44:17.150Z,40.00
2022-11-25T02:45:17.314Z,39.70
2022-11-25T02:46:21.846Z,40.50
2022-11-25T02:47:17.567Z,39.90
2022-11-25T02:48:17.724Z,41.20
2022-11-25T02:49:17.873Z,40.30
2022-11-25T02:50:18.038Z,40.90
2022-11-25T02:51:18.185Z,40.90
2022-11-25T02:52:18.344Z,41.30
2022-11-25T02:53:18.484Z,41.10
2022-11-25T02:54:18.645Z,40.30
2022-11-25T02:55:18.798Z,41.40
2022-11-25T02:56:18.968Z,42.10
2022-11-25T02:57:19.127Z,41.60
2022-11-25T02:58:19.292Z,40.80
2022-11-25T02:59:19.441Z,41.30
2022-11-25T03:00:19.594Z,41.10
2022-11-25T03:01:19.841Z,41.20
2022-11-25T03:02:19.929Z,39.90
2022-11-25T03:03:19.935Z,39.50
2022-11-25T03:04:20.093Z,39.10
2022-11-25T03:05:20.255Z,38.00
2022-11-25T03:06:20.413Z,38.70
2022-11-25T03:07:20.635Z,37.90
2022-11-25T03:08:20.684Z,37.40
2022-11-25T03:09:20.832Z,37.30
2022-11-25T03:10:20.992Z,39.30
2022-11-25T03:11:21.171Z,38.00
2022-11-25T03:12:21.253Z,37.60
2022-11-25T03:13:21.303Z,37.20
2022-11-25T03:14:21.453Z,36.90
2022-11-25T03:15:21.559Z,36.60
2022-11-25T03:16:21.739Z,35.80
2022-11-25T03:17:21.870Z,36.80
2022-11-25T03:18:22.020Z,36.10
2022-11-25T03:19:22.157Z,36.30
2022-11-25T03:20:22.317Z,36.00
2022-11-25T03:21:22.445Z,35.40
2022-11-25T03:22:22.640Z,34.90
2022-11-25T03:23:22.674Z,33.80
2022-11-25T03:24:22.818Z,34.90
2022-11-25T03:25:22.967Z,33.10
2022-11-25T03:26:23.127Z,34.50
2022-11-25T03:27:23.278Z,33.90
2022-11-25T03:28:23.453Z,33.50
2022-11-25T03:29:23.608Z,33.40
2022-11-25T03:30:23.767Z,33.00
2022-11-25T03:31:23.956Z,32.70
2022-11-25T03:32:24.007Z,33.30
2022-11-25T03:33:31.152Z,33.00
2022-11-25T03:34:24.291Z,32.20
2022-11-25T03:35:24.432Z,32.20
2022-11-25T03:36:24.590Z,32.20
2022-11-25T03:37:24.854Z,30.90
2022-11-25T03:38:24.833Z,31.00
2022-11-25T03:39:24.970Z,31.20
2022-11-25T03:40:25.135Z,32.00
2022-11-25T03:41:25.272Z,30.90
2022-11-25T03:42:25.436Z,31.30
2022-11-25T03:43:25.574Z,31.00
2022-11-25T03:44:25.722Z,30.50
2022-11-25T03:45:25.873Z,31.10
2022-11-25T03:46:26.137Z,30.70
2022-11-25T03:47:26.080Z,29.70
2022-11-25T03:48:26.230Z,30.70
2022-11-25T03:49:26.371Z,31.00
2022-11-25T03:50:26.531Z,30.90
2022-11-25T03:51:26.659Z,31.00
2022-11-25T03:52:26.818Z,30.70
2022-11-25T03:53:26.950Z,31.10
2022-11-25T03:54:27.114Z,31.50
2022-11-25T03:55:27.225Z,31.40
2022-11-25T03:56:27.355Z,32.10
2022-11-25T03:57:27.491Z,31.40
2022-11-25T03:58:27.630Z,32.00
2022-11-25T03:59:27.758Z,31.90
2022-11-25T04:00:27.922Z,32.60
2022-11-25T04:01:28.162Z,32.40
2022-11-25T04:02:28.246Z,31.90
2022-11-25T04:03:28.251Z,32.80
2022-11-25T04:04:28.388Z,32.90
2022-11-25T04:05:28.531Z,33.00
2022-11-25T04:06:28.673Z,32.90
2022-11-25T04:07:28.905Z,34.40
2022-11-25T04:08:28.930Z,34.10
2022-11-25T04:09:29.073Z,33.70
2022-11-25T04:10:29.210Z,32.80
2022-11-25T04:11:29.343Z,34.30
2022-11-25T04:12:29.496Z,33.60
2022-11-25T04:13:29.640Z,32.40
2022-11-25T04:14:29.768Z,32.80
2022-11-25T04:15:29.927Z,32.90
2022-11-25T04:16:30.112Z,38.30
2022-11-25T04:17:30.190Z,33.50
2022-11-25T04:18:30.220Z,32.20
2022-11-25T04:19:30.380Z,30.80
2022-11-25T04:20:30.529Z,32.20
2022-11-25T04:21:30.676Z,31.40
2022-11-25T04:22:30.829Z,31.70
2022-11-25T04:23:30.959Z,31.20
2022-11-25T04:24:31.113Z,31.40
2022-11-25T04:25:31.252Z,29.90
2022-11-25T04:26:31.393Z,29.10
2022-11-25T04:27:31.527Z,28.50
2022-11-25T04:28:31.665Z,27.90
2022-11-25T04:29:31.832Z,28.30
2022-11-25T04:30:31.997Z,27.60
2022-11-25T04:31:32.126Z,27.90
2022-11-25T04:32:32.286Z,28.10
2022-11-25T04:33:32.417Z,28.40
2022-11-25T04:34:32.574Z,27.60
2022-11-25T04:35:32.677Z,26.90
2022-11-25T04:36:32.811Z,27.60
2022-11-25T04:37:32.954Z,27.80
2022-11-25T04:38:33.090Z,28.40
2022-11-25T04:39:33.228Z,29.70
2022-11-25T04:40:33.359Z,29.80
2022-11-25T04:41:33.583Z,32.20
2022-11-25T04:42:33.631Z,32.30
2022-11-25T04:43:33.769Z,33.30
2022-11-25T04:44:34.261Z,32.60
2022-11-25T04:45:51.860Z,33.30
2022-11-25T04:46:35.156Z,33.00
2022-11-25T04:47:34.185Z,32.80
2022-11-25T04:48:34.312Z,32.90
2022-11-25T04:49:34.452Z,33.20
2022-11-25T04:50:34.586Z,32.10
2022-11-25T04:51:34.728Z,34.00
2022-11-25T04:52:34.870Z,32.10
2022-11-25T04:53:35.019Z,33.30
2022-11-25T04:54:35.373Z,33.00
2022-11-25T04:55:35.310Z,32.90
2022-11-25T04:56:35.456Z,31.80
2022-11-25T04:57:35.621Z,32.80
2022-11-25T04:58:35.769Z,32.50
2022-11-25T04:59:35.908Z,32.40
2022-11-25T05:00:35.974Z,31.60
2022-11-25T05:01:36.125Z,30.70
2022-11-25T05:02:36.221Z,31.70
2022-11-25T05:03:36.334Z,31.00
2022-11-25T05:04:36.771Z,30.10
2022-11-25T05:05:36.620Z,31.40
2022-11-25T05:06:36.719Z,30.30
2022-11-25T05:07:36.967Z,29.80
2022-11-25T05:08:37.025Z,29.50
2022-11-25T05:09:37.065Z,30.00
2022-11-25T05:10:37.205Z,30.10
2022-11-25T05:11:37.367Z,29.10
2022-11-25T05:12:37.502Z,28.70
2022-11-25T05:13:37.660Z,27.30
2022-11-25T05:14:37.981Z,28.10
2022-11-25T05:15:37.904Z,28.90
2022-11-25T05:16:38.093Z,29.00
2022-11-25T05:17:38.134Z,28.20
2022-11-25T05:18:38.292Z,28.60
2022-11-25T05:19:38.455Z,28.60
2022-11-25T05:20:38.601Z,30.50
2022-11-25T05:21:38.753Z,30.90
2022-11-25T05:22:38.893Z,29.50
2022-11-25T05:23:39.081Z,45.70
2022-11-25T05:24:39.110Z,31.50
2022-11-25T05:25:39.267Z,29.40
2022-11-25T05:26:39.380Z,29.10
2022-11-25T05:27:39.545Z,28.80
2022-11-25T05:28:39.730Z,29.70
2022-11-25T05:29:39.780Z,29.90
2022-11-25T05:30:40.018Z,29.40
2022-11-25T05:31:40.060Z,29.70
2022-11-25T05:32:40.203Z,29.20
2022-11-25T05:33:40.379Z,29.20
2022-11-25T05:34:40.519Z,29.40
2022-11-25T05:35:40.698Z,32.00
2022-11-25T05:36:40.743Z,54.20
2022-11-25T05:37:40.896Z,34.80
2022-11-25T05:38:41.063Z,32.20
2022-11-25T05:39:41.104Z,33.20
2022-11-25T05:40:41.271Z,33.80
2022-11-25T05:41:41.419Z,33.70
2022-11-25T05:42:41.558Z,34.60
2022-11-25T05:43:41.764Z,34.50
2022-11-25T05:44:41.794Z,32.10
2022-11-25T05:45:41.990Z,33.00
2022-11-25T05:46:42.040Z,33.60
2022-11-25T05:47:42.121Z,35.50
2022-11-25T05:48:42.248Z,31.80
2022-11-25T05:49:42.416Z,30.70
2022-11-25T05:50:42.554Z,31.80
2022-11-25T05:51:42.707Z,32.10
2022-11-25T05:52:42.875Z,32.30
2022-11-25T05:53:43.043Z,32.30
2022-11-25T05:54:43.078Z,33.50
2022-11-25T05:55:43.241Z,34.50
2022-11-25T05:56:43.381Z,33.70
2022-11-25T05:57:43.551Z,33.60
2022-11-25T05:58:43.609Z,35.30
2022-11-25T05:59:43.703Z,35.40
2022-11-25T06:00:43.751Z,35.20
2022-11-25T06:01:43.912Z,34.00
2022-11-25T06:02:44.252Z,32.70
2022-11-25T06:03:44.181Z,32.70
2022-11-25T06:04:44.251Z,32.80
2022-11-25T06:05:45.139Z,32.80
2022-11-25T06:06:44.363Z,32.80
2022-11-25T06:07:45.057Z,33.50
2022-11-25T06:08:44.619Z,32.70
2022-11-25T06:09:44.776Z,33.20
2022-11-25T06:10:44.932Z,33.70
2022-11-25T06:11:45.088Z,34.50
2022-11-25T06:12:45.251Z,33.10
2022-11-25T06:13:45.427Z,31.80
2022-11-25T06:14:45.984Z,32.80
2022-11-25T06:15:45.576Z,32.70
2022-11-25T06:16:46.147Z,32.70
2022-11-25T06:17:45.736Z,31.40
2022-11-25T06:18:45.904Z,32.50
2022-11-25T06:19:45.974Z,31.30
2022-11-25T06:20:46.012Z,32.30
2022-11-25T06:21:46.186Z,32.50
2022-11-25T06:22:46.345Z,30.80
2022-11-25T06:23:46.554Z,33.20
2022-11-25T06:24:52.944Z,32.30
2022-11-25T06:25:47.754Z,32.30
2022-11-25T06:26:46.813Z,31.70
2022-11-25T06:28:11.354Z,31.80
2022-11-25T06:28:48.127Z,33.30
2022-11-25T06:29:47.255Z,32.60
2022-11-25T06:30:47.383Z,34.00
2022-11-25T06:31:47.462Z,33.30
2022-11-25T06:32:47.574Z,32.60
2022-11-25T06:33:47.706Z,34.10
2022-11-25T06:34:47.806Z,34.30
2022-11-25T06:35:47.911Z,34.40
2022-11-25T06:36:48.037Z,34.30
2022-11-25T06:37:48.140Z,34.80
2022-11-25T06:38:48.240Z,35.40
2022-11-25T06:39:48.357Z,36.00
2022-11-25T06:40:49.399Z,35.10
2022-11-25T06:41:48.749Z,37.10
2022-11-25T06:42:48.704Z,35.20
2022-11-25T06:43:48.848Z,35.80
2022-11-25T06:44:49.003Z,35.90
2022-11-25T06:45:49.108Z,36.20
2022-11-25T06:46:49.325Z,36.70
2022-11-25T06:47:49.329Z,36.60
2022-11-25T06:48:49.429Z,35.40
2022-11-25T06:49:53.313Z,36.70
2022-11-25T06:50:49.702Z,35.70
2022-11-25T06:51:49.829Z,36.80
2022-11-25T06:52:49.936Z,36.70
2022-11-25T06:53:50.102Z,36.80
2022-11-25T06:54:50.226Z,36.60
2022-11-25T06:55:50.371Z,36.30
2022-11-25T06:56:50.477Z,37.00
2022-11-25T06:57:53.328Z,35.50
2022-11-25T06:58:51.750Z,36.00
2022-11-25T06:59:50.834Z,35.40
2022-11-25T07:00:51.690Z,36.20
2022-11-25T07:01:51.081Z,36.30
2022-11-25T07:02:51.190Z,35.80
2022-11-25T07:03:51.292Z,36.90
2022-11-25T07:04:52.414Z,35.00
2022-11-25T07:05:51.518Z,35.50
2022-11-25T07:06:51.641Z,35.40
2022-11-25T07:07:51.849Z,36.50
2022-11-25T07:08:53.633Z,36.20
2022-11-25T07:09:51.970Z,36.40
2022-11-25T07:10:52.074Z,36.00
2022-11-25T07:11:53.030Z,35.90
2022-11-25T07:12:52.320Z,36.70
2022-11-25T07:13:52.526Z,36.50
2022-11-25T07:14:52.580Z,34.90
2022-11-25T07:15:52.750Z,36.60
2022-11-25T07:16:52.867Z,36.30
2022-11-25T07:17:52.978Z,36.40
2022-11-25T07:18:53.099Z,35.40
2022-11-25T07:19:53.218Z,36.00
2022-11-25T07:20:53.321Z,36.30
2022-11-25T07:21:53.449Z,35.70
2022-11-25T07:22:53.557Z,35.50
2022-11-25T07:23:53.683Z,35.10
2022-11-25T07:24:53.754Z,36.10
2022-11-25T07:25:53.857Z,35.80
2022-11-25T07:26:53.929Z,34.90
2022-11-25T07:27:54.038Z,34.60
2022-11-25T07:28:54.203Z,34.40
2022-11-25T07:30:19.125Z,34.40
2022-11-25T07:31:22.787Z,33.30
2022-11-25T07:31:55.387Z,33.70
2022-11-25T07:32:54.524Z,33.00
2022-11-25T07:33:54.644Z,33.20
2022-11-25T07:34:54.707Z,33.10
2022-11-25T07:35:54.772Z,32.30
2022-11-25T07:36:54.815Z,32.80
2022-11-25T07:37:54.980Z,32.00
2022-11-25T07:38:55.107Z,32.10
2022-11-25T07:39:55.645Z,30.70
2022-11-25T07:40:56.368Z,30.30
2022-11-25T07:41:55.391Z,29.90
2022-11-25T07:42:55.529Z,28.90
2022-11-25T07:43:55.683Z,28.40
2022-11-25T07:44:55.797Z,27.90
2022-11-25T07:45:55.949Z,27.50
2022-11-25T07:46:56.168Z,26.50
2022-11-25T07:47:56.178Z,27.00
2022-11-25T07:48:56.309Z,25.40
2022-11-25T07:49:56.454Z,25.50
2022-11-25T07:50:56.448Z,25.50
2022-11-25T07:51:56.565Z,25.10
2022-11-25T07:52:56.695Z,24.30
2022-11-25T07:53:56.828Z,23.50
2022-11-25T07:54:56.933Z,24.10
2022-11-25T07:55:57.070Z,22.90
2022-11-25T07:56:57.048Z,22.90
2022-11-25T07:57:57.152Z,23.60
2022-11-25T07:58:57.256Z,23.40
2022-11-25T07:59:57.412Z,23.90
2022-11-25T08:00:57.409Z,22.20
2022-11-25T08:01:57.628Z,22.80
2022-11-25T08:02:57.669Z,22.10
2022-11-25T08:03:57.683Z,22.00
2022-11-25T08:04:57.769Z,21.30
2022-11-25T08:05:57.974Z,21.70
2022-11-25T08:06:57.920Z,20.90
2022-11-25T08:07:58.024Z,21.30
2022-11-25T08:08:58.111Z,19.70
2022-11-25T08:09:58.193Z,21.00
2022-11-25T08:10:58.247Z,19.80
2022-11-25T08:11:58.330Z,20.00
2022-11-25T08:12:58.446Z,20.20
2022-11-25T08:13:58.586Z,19.80
2022-11-25T08:14:58.557Z,19.00
2022-11-25T08:15:58.698Z,19.80
2022-11-25T08:16:59.276Z,19.90
2022-11-25T08:17:58.675Z,19.50
2022-11-25T08:18:58.769Z,18.80
2022-11-25T08:19:58.847Z,19.00
2022-11-25T08:20:58.953Z,19.40
2022-11-25T08:21:58.923Z,18.60
2022-11-25T08:22:59.006Z,19.40
2022-11-25T08:23:59.100Z,19.40
2022-11-25T08:24:59.150Z,19.40
2022-11-25T08:25:59.228Z,20.20
2022-11-25T08:26:59.324Z,19.30
2022-11-25T08:27:59.374Z,19.60
2022-11-25T08:28:59.463Z,20.50
2022-11-25T08:29:59.562Z,21.50
2022-11-25T08:30:59.677Z,21.60
2022-11-25T08:31:59.753Z,22.50
2022-11-25T08:32:59.802Z,21.60
2022-11-25T08:33:59.900Z,22.40
2022-11-25T08:34:59.959Z,22.40
2022-11-25T08:36:00.022Z,23.30
2022-11-25T08:37:00.114Z,23.00
2022-11-25T08:38:00.179Z,22.50
2022-11-25T08:39:00.335Z,22.10
2022-11-25T08:40:01.042Z,23.80
2022-11-25T08:41:00.370Z,22.90
2022-11-25T08:42:00.469Z,23.30
2022-11-25T08:43:00.544Z,23.90
2022-11-25T08:44:00.668Z,23.80
2022-11-25T08:45:00.717Z,23.60
2022-11-25T08:46:00.865Z,23.60
2022-11-25T08:47:00.946Z,23.00
2022-11-25T08:48:00.891Z,23.90
2022-11-25T08:49:00.953Z,24.00
2022-11-25T08:50:01.021Z,23.40
2022-11-25T08:51:01.089Z,23.20
2022-11-25T08:52:01.177Z,24.00
2022-11-25T08:53:01.260Z,25.00
2022-11-25T08:54:01.388Z,24.20
2022-11-25T08:55:01.476Z,23.80
2022-11-25T08:56:01.550Z,24.50
2022-11-25T08:57:01.654Z,24.10
2022-11-25T08:58:02.292Z,23.20
2022-11-25T08:59:01.849Z,23.40
2022-11-25T09:00:01.914Z,24.30
2022-11-25T09:01:02.006Z,23.70
2022-11-25T09:02:02.157Z,24.50
2022-11-25T09:03:04.322Z,23.30
2022-11-25T09:04:02.237Z,22.40
2022-11-25T09:05:02.361Z,22.40
2022-11-25T09:06:02.427Z,23.70
2022-11-25T09:07:02.528Z,22.80
2022-11-25T09:08:02.649Z,23.40
2022-11-25T09:09:02.643Z,22.60
2022-11-25T09:10:02.710Z,22.20
2022-11-25T09:11:02.922Z,31.00
2022-11-25T09:12:02.902Z,23.60
2022-11-25T09:13:02.979Z,21.80
2022-11-25T09:14:03.178Z,22.60
2022-11-25T09:15:03.191Z,23.30
2022-11-25T09:16:03.374Z,22.70
2022-11-25T09:17:03.380Z,23.30
2022-11-25T09:18:03.455Z,23.90
2022-11-25T09:19:03.563Z,23.00
2022-11-25T09:20:03.656Z,21.90
2022-11-25T09:21:03.779Z,22.10
2022-11-25T09:22:03.810Z,21.70
2022-11-25T09:23:03.886Z,23.40
2022-11-25T09:24:03.992Z,22.70
2022-11-25T09:25:04.631Z,23.40
2022-11-25T09:26:04.142Z,21.30
2022-11-25T09:27:04.238Z,29.40
2022-11-25T09:28:04.352Z,23.00
2022-11-25T09:29:04.452Z,22.10
2022-11-25T09:30:04.536Z,22.50
2022-11-25T09:31:04.727Z,21.20
2022-11-25T09:32:04.713Z,21.00
2022-11-25T09:33:04.783Z,20.50
2022-11-25T09:34:11.862Z,19.30
2022-11-25T09:35:04.946Z,21.10
2022-11-25T09:36:05.013Z,20.00
2022-11-25T09:37:05.098Z,18.90
2022-11-25T09:38:05.147Z,19.20
2022-11-25T09:39:05.215Z,18.40
2022-11-25T09:40:05.294Z,18.00
2022-11-25T09:41:05.383Z,19.40
2022-11-25T09:42:05.447Z,18.40
2022-11-25T09:43:05.514Z,18.30
2022-11-25T09:44:05.563Z,20.80
2022-11-25T09:45:05.622Z,24.20
2022-11-25T09:46:05.720Z,18.20
2022-11-25T09:47:05.756Z,19.20
2022-11-25T09:48:05.794Z,17.40
2022-11-25T09:49:05.840Z,15.80
2022-11-25T09:50:05.888Z,32.70
2022-11-25T09:51:05.955Z,58.40
2022-11-25T09:52:05.975Z,17.40
2022-11-25T09:53:06.001Z,25.50
2022-11-25T09:54:06.030Z,17.70
2022-11-25T09:55:06.063Z,16.40
2022-11-25T09:56:06.077Z,16.00
2022-11-25T09:57:06.111Z,17.30
2022-11-25T09:58:06.121Z,17.00
2022-11-25T09:59:06.143Z,17.60
2022-11-25T10:00:06.180Z,16.30
2022-11-25T10:01:06.197Z,15.00
2022-11-25T10:02:06.252Z,16.10
2022-11-25T10:03:06.337Z,14.30
2022-11-25T10:04:06.233Z,14.00
2022-11-25T10:05:06.274Z,15.90
2022-11-25T10:06:06.368Z,18.20
2022-11-25T10:07:06.284Z,15.70
2022-11-25T10:08:06.294Z,15.30
2022-11-25T10:09:06.308Z,14.80
2022-11-25T10:10:06.352Z,17.00
2022-11-25T10:11:06.358Z,14.40
2022-11-25T10:12:06.378Z,21.20
2022-11-25T10:13:06.393Z,13.40
2022-11-25T10:14:06.392Z,17.00
2022-11-25T10:15:06.427Z,13.90
2022-11-25T10:16:06.487Z,13.70
2022-11-25T10:17:06.453Z,14.80
2022-11-25T10:18:06.456Z,13.20
2022-11-25T10:19:06.461Z,12.70
2022-11-25T10:20:06.498Z,13.80
2022-11-25T10:21:06.530Z,13.50
2022-11-25T10:22:06.538Z,16.70
2022-11-25T10:23:06.557Z,13.90
2022-11-25T10:24:06.572Z,13.30
2022-11-25T10:25:06.609Z,13.60
2022-11-25T10:26:06.611Z,13.40
2022-11-25T10:27:06.613Z,13.40
2022-11-25T10:28:06.623Z,13.60
2022-11-25T10:29:06.645Z,14.00
2022-11-25T10:30:06.686Z,14.30
2022-11-25T10:31:06.735Z,14.60
2022-11-25T10:32:06.718Z,14.10
2022-11-25T10:33:06.716Z,14.10
2022-11-25T10:34:06.746Z,13.80
2022-11-25T10:35:06.768Z,15.60
2022-11-25T10:36:06.764Z,16.80
2022-11-25T10:37:06.767Z,15.10
2022-11-25T10:38:06.758Z,16.30
2022-11-25T10:39:06.786Z,17.00
2022-11-25T10:40:06.767Z,21.10
2022-11-25T10:41:06.771Z,24.00
2022-11-25T10:42:06.752Z,20.30
2022-11-25T10:43:06.768Z,21.20
2022-11-25T10:44:06.759Z,24.70
2022-11-25T10:45:06.768Z,20.60
2022-11-25T10:46:06.792Z,24.10
2022-11-25T10:47:15.106Z,24.60
2022-11-25T10:48:07.697Z,28.20
2022-11-25T10:49:06.680Z,20.30
2022-11-25T10:50:06.668Z,18.90
2022-11-25T10:51:06.659Z,24.70
2022-11-25T10:52:06.643Z,19.80
2022-11-25T10:53:06.635Z,22.90
2022-11-25T10:54:06.607Z,23.40
2022-11-25T10:55:06.647Z,17.70
2022-11-25T10:56:06.508Z,18.70
2022-11-25T10:57:06.508Z,15.60
2022-11-25T10:58:06.487Z,19.30
2022-11-25T10:59:06.475Z,15.90
2022-11-25T11:00:06.458Z,19.30
2022-11-25T11:01:06.455Z,21.10
2022-11-25T11:02:06.492Z,18.70
2022-11-25T11:03:06.562Z,16.90
2022-11-25T11:04:06.418Z,17.80
2022-11-25T11:05:06.433Z,17.80
2022-11-25T11:06:06.452Z,17.20
2022-11-25T11:07:06.456Z,15.80
2022-11-25T11:08:06.419Z,17.40
2022-11-25T11:09:06.457Z,18.10
2022-11-25T11:10:06.336Z,18.40
2022-11-25T11:11:07.169Z,18.00
2022-11-25T11:12:06.256Z,17.80
2022-11-25T11:13:06.239Z,17.20
2022-11-25T11:14:06.211Z,17.90
2022-11-25T11:15:06.225Z,16.80
2022-11-25T11:16:06.280Z,17.50
2022-11-25T11:17:06.171Z,17.20
2022-11-25T11:18:06.154Z,18.50
2022-11-25T11:19:06.138Z,17.00
2022-11-25T11:20:06.113Z,16.70
2022-11-25T11:21:06.108Z,18.00
2022-11-25T11:22:06.119Z,18.00
2022-11-25T11:23:09.110Z,17.60
2022-11-25T11:24:06.127Z,16.60
2022-11-25T11:25:06.117Z,17.60
2022-11-25T11:26:06.166Z,17.30
2022-11-25T11:27:06.052Z,16.70
2022-11-25T11:28:06.033Z,16.90
2022-11-25T11:29:09.802Z,16.50
2022-11-25T11:30:06.952Z,16.80
2022-11-25T11:31:05.987Z,17.30
2022-11-25T11:32:05.871Z,17.40
2022-11-25T11:33:05.864Z,16.20
2022-11-25T11:34:05.850Z,16.90
2022-11-25T11:35:05.839Z,16.40
2022-11-25T11:36:05.826Z,15.60
2022-11-25T11:37:05.807Z,15.10
2022-11-25T11:38:05.797Z,14.90
2022-11-25T11:39:05.787Z,16.00
2022-11-25T11:40:05.762Z,15.60
2022-11-25T11:41:05.780Z,15.00
2022-11-25T11:42:05.768Z,15.60
2022-11-25T11:43:05.785Z,15.70
2022-11-25T11:44:05.770Z,15.60
2022-11-25T11:45:05.763Z,16.70
2022-11-25T11:46:05.751Z,15.70
2022-11-25T11:47:05.773Z,16.10
2022-11-25T11:48:05.657Z,17.90
2022-11-25T11:49:05.647Z,17.50
2022-11-25T11:50:05.628Z,17.30
2022-11-25T11:51:05.621Z,17.00
2022-11-25T11:52:05.597Z,17.90
2022-11-25T11:53:05.597Z,18.20
2022-11-25T11:54:05.609Z,17.80
2022-11-25T11:55:05.598Z,17.70
2022-11-25T11:56:33.803Z,18.10
2022-11-25T11:57:06.528Z,19.00
2022-11-25T11:58:05.517Z,18.30
2022-11-25T11:59:05.511Z,18.30
2022-11-25T12:00:05.518Z,18.40
2022-11-25T12:01:05.512Z,18.70
2022-11-25T12:02:05.768Z,17.90
2022-11-25T12:03:05.626Z,19.30
2022-11-25T12:04:05.425Z,18.90
2022-11-25T12:05:05.444Z,19.00
2022-11-25T12:06:05.438Z,20.00
2022-11-25T12:07:05.437Z,20.10
2022-11-25T12:08:05.426Z,19.70
2022-11-25T12:09:05.427Z,20.70
2022-11-25T12:10:05.435Z,20.40
2022-11-25T12:11:05.447Z,21.60
2022-11-25T12:12:05.449Z,21.60
2022-11-25T12:13:05.470Z,21.80
2022-11-25T12:14:05.486Z,22.50
2022-11-25T12:15:05.577Z,22.80
2022-11-25T12:16:05.518Z,24.00
2022-11-25T12:17:05.526Z,23.60
2022-11-25T12:18:05.563Z,23.10
2022-11-25T12:19:05.588Z,23.40
2022-11-25T12:20:05.625Z,24.60
2022-11-25T12:21:05.672Z,24.60
2022-11-25T12:22:05.766Z,24.80
2022-11-25T12:23:05.696Z,25.00
2022-11-25T12:24:05.735Z,25.00
2022-11-25T12:25:05.796Z,25.60
2022-11-25T12:26:05.851Z,26.00
2022-11-25T12:27:05.916Z,25.50
2022-11-25T12:28:05.947Z,25.00
2022-11-25T12:29:06.000Z,25.20
2022-11-25T12:30:06.086Z,25.60
2022-11-25T12:31:06.272Z,25.70
2022-11-25T12:32:06.226Z,25.10
2022-11-25T12:33:07.263Z,25.40
2022-11-25T12:34:06.196Z,24.40
2022-11-25T12:35:06.285Z,25.20
2022-11-25T12:36:06.466Z,24.90
2022-11-25T12:37:09.498Z,25.30
2022-11-25T12:38:07.421Z,24.80
2022-11-25T12:39:06.492Z,24.00
2022-11-25T12:40:06.530Z,23.40
2022-11-25T12:41:06.595Z,24.40
2022-11-25T12:42:06.653Z,22.90
2022-11-25T12:43:06.718Z,23.20
2022-11-25T12:44:06.784Z,22.30
2022-11-25T12:45:06.894Z,22.40
2022-11-25T12:46:06.981Z,22.30
2022-11-25T12:47:07.047Z,22.00
2022-11-25T12:48:07.258Z,21.80
2022-11-25T12:49:07.254Z,21.90
2022-11-25T12:50:07.377Z,21.90
2022-11-25T12:51:07.461Z,20.90
2022-11-25T12:52:07.532Z,21.30
2022-11-25T12:53:07.591Z,21.50
2022-11-25T12:54:07.695Z,21.40